Triple S — V2QN7 — position and weather

sailwx.info

Track history (hours):
 
Tides and Currents Weather Stations Pressure Air Temp Water Temp Dewpoint Dewpoint Depression Visibility Wind Speed Wind Dir Waves Ship Positions

Triple S

Last reported at 2018-Jun-25 13:47 UTC. Time now 2018-Jun-25 14:16 UTC.
Position N 53°38' W 000°11'.

Length 90 m; draft 6.1 m.

Type: Cargo ship. MMSI: 305948000.

Date/timePositionNaut miles runAvg speedWind from/ knotsBaromVisibWave heightAir tempDewpointWater temp
2018-Jun-25 13:47N 53°38' W 000°11'0 0.0
2018-Jun-25 13:28N 53°38' W 000°11'0 0.0
2018-Jun-25 12:51N 53°38' W 000°11'0 0.0
2018-Jun-25 12:18N 53°38' W 000°11'0 0.0
2018-Jun-25 11:12N 53°38' W 000°11'0 0.0
2018-Jun-25 11:00N 53°38' W 000°11'0 0.0
2018-Jun-25 08:30N 53°38' W 000°11'0 0.0
2018-Jun-25 07:49N 53°38' W 000°11'0 0.0
2018-Jun-25 07:23N 53°38' W 000°11'0 0.6
2018-Jun-25 06:59N 53°38' W 000°11'0 0.3
2018-Jun-25 06:30N 53°38' W 000°11'1 1.8
2018-Jun-25 06:00N 53°38' W 000°10'3 6.3
2018-Jun-25 05:30N 53°37' W 000°05'4 7.6
2018-Jun-25 05:00N 53°35' E 000°01'4 7.8
2018-Jun-25 04:30N 53°34' E 000°07'4 7.8
2018-Jun-25 03:57N 53°33' E 000°14'32 7.0
2018-Jun-24 23:20N 53°10' E 000°52'3 9.2
2018-Jun-24 22:59N 53°08' E 000°56'4 9.2
2018-Jun-24 22:30N 53°05' E 001°02'5 9.1
2018-Jun-24 22:00N 53°02' E 001°07'5 9.2
2018-Jun-24 21:30N 53°00' E 001°15'5 9.1
2018-Jun-24 21:00N 52°59' E 001°22'4 8.6
2018-Jun-24 20:30N 52°57' E 001°28'5 9.8
2018-Jun-24 20:00N 52°55' E 001°36'5 9.2
2018-Jun-24 19:30N 52°52' E 001°42'4 8.5
2018-Jun-24 19:00N 52°50' E 001°48'4 8.0
2018-Jun-24 18:30N 52°47' E 001°53'4 7.5
2018-Jun-24 18:00N 52°45' E 001°58'4 7.2
2018-Jun-24 17:30N 52°42' E 001°58'4 7.2
2018-Jun-24 17:00N 52°38' E 001°58'4 7.1
2018-Jun-24 16:30N 52°35' E 001°57'4 7.8
2018-Jun-24 16:00N 52°31' E 001°57'5 8.6
2018-Jun-24 15:27N 52°26' E 001°55'6 9.2
2018-Jun-24 14:51N 52°21' E 001°54'3 9.8
2018-Jun-24 14:30N 52°17' E 001°54'510.0
2018-Jun-24 14:00N 52°12' E 001°53'510.5
2018-Jun-24 13:30N 52°07' E 001°52'510.9
2018-Jun-24 13:00N 52°02' E 001°51'611.1
2018-Jun-24 12:30N 51°56' E 001°50'510.9
2018-Jun-24 12:00N 51°51' E 001°49'510.8
2018-Jun-24 11:30N 51°45' E 001°49'510.4
2018-Jun-24 11:00N 51°40' E 001°50'510.3
2018-Jun-24 10:30N 51°35' E 001°51'5 9.7
2018-Jun-24 10:00N 51°30' E 001°53'5 9.5
2018-Jun-24 09:30N 51°27' E 001°59'5 9.3
2018-Jun-24 09:00N 51°24' E 002°05'4 7.1
2018-Jun-24 08:30N 51°21' E 002°07'5 9.7
2018-Jun-24 08:01N 51°16' E 002°05'5 9.7
2018-Jun-24 07:30N 51°13' E 002°00'5 9.5
2018-Jun-24 07:00N 51°10' E 001°54'5 9.3
2018-Jun-24 06:30N 51°07' E 001°48'5 9.2
2018-Jun-24 06:00N 51°04' E 001°43'4 8.0
2018-Jun-24 05:30N 51°01' E 001°39'4 7.6
2018-Jun-24 05:00N 50°58' E 001°34'4 7.8
2018-Jun-24 04:30N 50°55' E 001°30'4 7.6
2018-Jun-24 04:00N 50°52' E 001°27'3 7.1
2018-Jun-24 03:30N 50°49' E 001°25'4 7.3
2018-Jun-24 03:00N 50°45' E 001°23'3 6.6
2018-Jun-24 02:30N 50°42' E 001°20'3 7.0
2018-Jun-24 02:00N 50°40' E 001°16'3 7.0
2018-Jun-24 01:30N 50°37' E 001°12'4 7.2
2018-Jun-24 01:00N 50°35' E 001°08'4 7.3
2018-Jun-24 00:30N 50°32' E 001°04'4 7.2
2018-Jun-24 00:00N 50°29' E 001°00'4 7.4
2018-Jun-23 23:28N 50°28' E 000°55'3 7.6
2018-Jun-23 23:00N 50°27' E 000°49'4 7.6
2018-Jun-23 22:30N 50°26' E 000°44'7 7.7
2018-Jun-23 21:39N 50°24' E 000°34'2 7.4
2018-Jun-23 21:24N 50°23' E 000°31'16 6.7
2018-Jun-23 19:03N 50°19' E 000°07'0 7.4
2018-Jun-23 19:00N 50°19' E 000°07'4 7.6
2018-Jun-23 18:30N 50°18' E 000°01'4 8.0
2018-Jun-23 17:59N 50°17' W 000°05'5 9.5
2018-Jun-23 17:30N 50°16' W 000°12'11 9.9
2018-Jun-23 16:21N 50°13' W 000°29'3 9.8
2018-Jun-23 16:00N 50°12' W 000°34'5 9.6
2018-Jun-23 15:30N 50°11' W 000°42'5 9.2
2018-Jun-23 15:00N 50°09' W 000°49'8 8.7
2018-Jun-23 14:02N 50°07' W 001°01'0 8.2
2018-Jun-23 14:00N 50°07' W 001°02'4 8.1
2018-Jun-23 13:28N 50°06' W 001°08'4 8.1
2018-Jun-23 12:57N 50°05' W 001°14'4 8.2
2018-Jun-23 12:30N 50°04' W 001°20'4 8.1
2018-Jun-23 12:00N 50°03' W 001°26'4 7.9
2018-Jun-23 11:30N 50°01' W 001°32'4 7.5
2018-Jun-23 11:00N 50°00' W 001°37'4 7.3
2018-Jun-23 10:30N 49°59' W 001°43'4 7.2
2018-Jun-23 10:00N 49°58' W 001°48'5 7.3
2018-Jun-23 09:17N 49°56' W 001°56'3 7.6
2018-Jun-23 08:54N 49°56' W 002°00'3 7.9
2018-Jun-23 08:30N 49°55' W 002°05'4 8.4
2018-Jun-23 08:00N 49°54' W 002°11'5 9.1
2018-Jun-23 07:30N 49°53' W 002°18'5 9.6
2018-Jun-23 07:00N 49°52' W 002°25'5 9.9
2018-Jun-23 06:30N 49°51' W 002°33'510.3
2018-Jun-23 06:00N 49°49' W 002°41'510.7
2018-Jun-23 05:30N 49°48' W 002°49'510.8
2018-Jun-23 05:00N 49°46' W 002°56'510.8
2018-Jun-23 04:30N 49°43' W 003°03'511.0
2018-Jun-23 04:00N 49°40' W 003°11'611.1
2018-Jun-23 03:30N 49°37' W 003°18'610.8
2018-Jun-23 02:58N 49°34' W 003°26'510.9
2018-Jun-23 02:30N 49°32' W 003°33'1310.9
2018-Jun-23 01:20N 49°26' W 003°50'310.7
2018-Jun-23 01:00N 49°24' W 003°55'510.7
2018-Jun-23 00:30N 49°21' W 004°02'510.7
2018-Jun-23 00:00N 49°19' W 004°09'510.6
2018-Jun-22 23:30N 49°16' W 004°16'610.5
2018-Jun-22 22:57N 49°13' W 004°24'2310.1
2018-Jun-22 20:38N 49°02' W 004°55'9 9.5
2018-Jun-22 19:43N 48°57' W 005°06'26 8.5
2018-Jun-22 16:44N 48°42' W 005°37'3 8.2
2018-Jun-22 16:19N 48°39' W 005°40'3 8.3
2018-Jun-22 15:59N 48°37' W 005°42'  
2018-Jun-19 16:44N 39°31' W 009°49'2 8.5
2018-Jun-19 16:30N 39°29' W 009°49'5 8.9
2018-Jun-19 16:00N 39°24' W 009°49'4 8.7
2018-Jun-19 15:30N 39°20' W 009°49'5 9.1
2018-Jun-19 15:00N 39°15' W 009°49'5 8.9
2018-Jun-19 14:29N 39°11' W 009°49'4 9.1
2018-Jun-19 14:00N 39°06' W 009°50'4 8.6
2018-Jun-19 13:30N 39°02' W 009°50'4 8.5
2018-Jun-19 13:00N 38°58' W 009°50'4 8.7
2018-Jun-19 12:30N 38°53' W 009°50'4 8.7
2018-Jun-19 12:00N 38°49' W 009°50'4 8.4
2018-Jun-19 11:30N 38°45' W 009°50'4 8.1
2018-Jun-19 11:00N 38°41' W 009°50'4 8.2
2018-Jun-19 10:30N 38°37' W 009°48'4 8.1
2018-Jun-19 10:00N 38°33' W 009°47'4 7.9
2018-Jun-19 09:30N 38°29' W 009°46'6 8.4
2018-Jun-19 08:45N 38°23' W 009°44'2 8.4
2018-Jun-19 08:28N 38°21' W 009°44'4 8.4
2018-Jun-19 07:58N 38°16' W 009°42'7 8.6
2018-Jun-19 07:12N 38°10' W 009°41'9 8.6
2018-Jun-19 06:10N 38°01' W 009°38'14 8.8
2018-Jun-19 04:32N 37°47' W 009°34'2 8.9
2018-Jun-19 04:18N 37°45' W 009°33'3 8.5
2018-Jun-19 03:57N 37°42' W 009°33'4 8.7
2018-Jun-19 03:30N 37°39' W 009°31'5 9.0
2018-Jun-19 02:59N 37°34' W 009°30'4 8.8
2018-Jun-19 02:30N 37°30' W 009°29'4 8.4
2018-Jun-19 02:00N 37°26' W 009°27'4 8.5
2018-Jun-19 01:30N 37°22' W 009°26'4 8.8
2018-Jun-19 01:00N 37°17' W 009°25'5 9.0
2018-Jun-19 00:28N 37°13' W 009°24'76 7.9
2018-Jun-18 14:51N 36°28' W 008°06'3 9.3
2018-Jun-18 14:30N 36°27' W 008°02'5 9.4
2018-Jun-18 14:00N 36°26' W 007°57'5 9.4
2018-Jun-18 13:30N 36°24' W 007°51'5 9.5
2018-Jun-18 13:00N 36°23' W 007°46'104 9.7
2018-Jun-18 02:16N 35°58' W 005°40'310.1
2018-Jun-18 02:00N 35°58' W 005°37'5 9.4
2018-Jun-18 01:30N 35°58' W 005°31'4 8.5
2018-Jun-18 01:00N 35°59' W 005°26'4 7.3
2018-Jun-18 00:30N 35°57' W 005°22'4 8.5
2018-Jun-18 00:00N 35°54' W 005°19'1 1.6
2018-Jun-17 23:29N 35°54' W 005°18'0 0.0
2018-Jun-17 22:59N 35°54' W 005°18'0 0.0
2018-Jun-17 22:29N 35°54' W 005°18'0 0.0
2018-Jun-17 21:59N 35°54' W 005°18'0 0.0
2018-Jun-17 21:29N 35°54' W 005°18'0 0.0
2018-Jun-17 20:59N 35°54' W 005°18'0 0.0
2018-Jun-17 20:29N 35°54' W 005°18'0 0.0
2018-Jun-17 19:59N 35°54' W 005°18'0 0.0
2018-Jun-17 19:31N 35°54' W 005°18'1 1.6
2018-Jun-17 19:01N 35°55' W 005°18'1 1.0
2018-Jun-17 18:30N 35°55' W 005°18'1 1.1
2018-Jun-17 18:00N 35°55' W 005°18'1 1.5
2018-Jun-17 17:30N 35°56' W 005°17'4 8.0
2018-Jun-17 17:00N 35°59' W 005°14'2 2.7
2018-Jun-17 16:19N 36°00' W 005°13'1 1.5
2018-Jun-17 15:55N 35°60' W 005°13'1 2.0
2018-Jun-17 15:30N 35°59' W 005°13'1 2.5
2018-Jun-17 15:00N 35°58' W 005°14'1 1.3
2018-Jun-17 14:31N 35°57' W 005°14'2 4.4
2018-Jun-17 13:59N 35°57' W 005°11'5 8.9
2018-Jun-17 13:28N 35°58' W 005°06'157 9.1
2018-Jun-16 20:07N 36°45' W 001°59'  
Track history (hours):
 
Tides and Currents Weather Stations Pressure Air Temp Water Temp Dewpoint Dewpoint Depression Visibility Wind Speed Wind Dir Waves Ship Positions

Triple S

Last reported at 2018-Jun-25 13:47 UTC. Time now 2018-Jun-25 14:16 UTC.
Position N 53°38' W 000°11'.

Length 90 m; draft 6.1 m.

Type: Cargo ship. MMSI: 305948000.

Date/timePositionNaut miles runAvg speedWind from/ knotsBaromVisibWave heightAir tempDewpointWater temp
2018-Jun-25 13:47N 53°38' W 000°11'0 0.0
2018-Jun-25 13:28N 53°38' W 000°11'0 0.0
2018-Jun-25 12:51N 53°38' W 000°11'0 0.0
2018-Jun-25 12:18N 53°38' W 000°11'0 0.0
2018-Jun-25 11:12N 53°38' W 000°11'0 0.0
2018-Jun-25 11:00N 53°38' W 000°11'0 0.0
2018-Jun-25 08:30N 53°38' W 000°11'0 0.0
2018-Jun-25 07:49N 53°38' W 000°11'0 0.0
2018-Jun-25 07:23N 53°38' W 000°11'0 0.6
2018-Jun-25 06:59N 53°38' W 000°11'0 0.3
2018-Jun-25 06:30N 53°38' W 000°11'1 1.8
2018-Jun-25 06:00N 53°38' W 000°10'3 6.3
2018-Jun-25 05:30N 53°37' W 000°05'4 7.6
2018-Jun-25 05:00N 53°35' E 000°01'4 7.8
2018-Jun-25 04:30N 53°34' E 000°07'4 7.8
2018-Jun-25 03:57N 53°33' E 000°14'32 7.0
2018-Jun-24 23:20N 53°10' E 000°52'3 9.2
2018-Jun-24 22:59N 53°08' E 000°56'4 9.2
2018-Jun-24 22:30N 53°05' E 001°02'5 9.1
2018-Jun-24 22:00N 53°02' E 001°07'5 9.2
2018-Jun-24 21:30N 53°00' E 001°15'5 9.1
2018-Jun-24 21:00N 52°59' E 001°22'4 8.6
2018-Jun-24 20:30N 52°57' E 001°28'5 9.8
2018-Jun-24 20:00N 52°55' E 001°36'5 9.2
2018-Jun-24 19:30N 52°52' E 001°42'4 8.5
2018-Jun-24 19:00N 52°50' E 001°48'4 8.0
2018-Jun-24 18:30N 52°47' E 001°53'4 7.5
2018-Jun-24 18:00N 52°45' E 001°58'4 7.2
2018-Jun-24 17:30N 52°42' E 001°58'4 7.2
2018-Jun-24 17:00N 52°38' E 001°58'4 7.1
2018-Jun-24 16:30N 52°35' E 001°57'4 7.8
2018-Jun-24 16:00N 52°31' E 001°57'5 8.6
2018-Jun-24 15:27N 52°26' E 001°55'6 9.2
2018-Jun-24 14:51N 52°21' E 001°54'3 9.8
2018-Jun-24 14:30N 52°17' E 001°54'510.0
2018-Jun-24 14:00N 52°12' E 001°53'510.5
2018-Jun-24 13:30N 52°07' E 001°52'510.9
2018-Jun-24 13:00N 52°02' E 001°51'611.1
2018-Jun-24 12:30N 51°56' E 001°50'510.9
2018-Jun-24 12:00N 51°51' E 001°49'510.8
2018-Jun-24 11:30N 51°45' E 001°49'510.4
2018-Jun-24 11:00N 51°40' E 001°50'510.3
2018-Jun-24 10:30N 51°35' E 001°51'5 9.7
2018-Jun-24 10:00N 51°30' E 001°53'5 9.5
2018-Jun-24 09:30N 51°27' E 001°59'5 9.3
2018-Jun-24 09:00N 51°24' E 002°05'4 7.1
2018-Jun-24 08:30N 51°21' E 002°07'5 9.7
2018-Jun-24 08:01N 51°16' E 002°05'5 9.7
2018-Jun-24 07:30N 51°13' E 002°00'5 9.5
2018-Jun-24 07:00N 51°10' E 001°54'5 9.3
2018-Jun-24 06:30N 51°07' E 001°48'5 9.2
2018-Jun-24 06:00N 51°04' E 001°43'4 8.0
2018-Jun-24 05:30N 51°01' E 001°39'4 7.6
2018-Jun-24 05:00N 50°58' E 001°34'4 7.8
2018-Jun-24 04:30N 50°55' E 001°30'4 7.6
2018-Jun-24 04:00N 50°52' E 001°27'3 7.1
2018-Jun-24 03:30N 50°49' E 001°25'4 7.3
2018-Jun-24 03:00N 50°45' E 001°23'3 6.6
2018-Jun-24 02:30N 50°42' E 001°20'3 7.0
2018-Jun-24 02:00N 50°40' E 001°16'3 7.0
2018-Jun-24 01:30N 50°37' E 001°12'4 7.2
2018-Jun-24 01:00N 50°35' E 001°08'4 7.3
2018-Jun-24 00:30N 50°32' E 001°04'4 7.2
2018-Jun-24 00:00N 50°29' E 001°00'4 7.4
2018-Jun-23 23:28N 50°28' E 000°55'3 7.6
2018-Jun-23 23:00N 50°27' E 000°49'4 7.6
2018-Jun-23 22:30N 50°26' E 000°44'7 7.7
2018-Jun-23 21:39N 50°24' E 000°34'2 7.4
2018-Jun-23 21:24N 50°23' E 000°31'16 6.7
2018-Jun-23 19:03N 50°19' E 000°07'0 7.4
2018-Jun-23 19:00N 50°19' E 000°07'4 7.6
2018-Jun-23 18:30N 50°18' E 000°01'4 8.0
2018-Jun-23 17:59N 50°17' W 000°05'5 9.5
2018-Jun-23 17:30N 50°16' W 000°12'11 9.9
2018-Jun-23 16:21N 50°13' W 000°29'3 9.8
2018-Jun-23 16:00N 50°12' W 000°34'5 9.6
2018-Jun-23 15:30N 50°11' W 000°42'5 9.2
2018-Jun-23 15:00N 50°09' W 000°49'8 8.7
2018-Jun-23 14:02N 50°07' W 001°01'0 8.2
2018-Jun-23 14:00N 50°07' W 001°02'4 8.1
2018-Jun-23 13:28N 50°06' W 001°08'4 8.1
2018-Jun-23 12:57N 50°05' W 001°14'4 8.2
2018-Jun-23 12:30N 50°04' W 001°20'4 8.1
2018-Jun-23 12:00N 50°03' W 001°26'4 7.9
2018-Jun-23 11:30N 50°01' W 001°32'4 7.5
2018-Jun-23 11:00N 50°00' W 001°37'4 7.3
2018-Jun-23 10:30N 49°59' W 001°43'4 7.2
2018-Jun-23 10:00N 49°58' W 001°48'5 7.3
2018-Jun-23 09:17N 49°56' W 001°56'3 7.6
2018-Jun-23 08:54N 49°56' W 002°00'3 7.9
2018-Jun-23 08:30N 49°55' W 002°05'4 8.4
2018-Jun-23 08:00N 49°54' W 002°11'5 9.1
2018-Jun-23 07:30N 49°53' W 002°18'5 9.6
2018-Jun-23 07:00N 49°52' W 002°25'5 9.9
2018-Jun-23 06:30N 49°51' W 002°33'510.3
2018-Jun-23 06:00N 49°49' W 002°41'510.7
2018-Jun-23 05:30N 49°48' W 002°49'510.8
2018-Jun-23 05:00N 49°46' W 002°56'510.8
2018-Jun-23 04:30N 49°43' W 003°03'511.0
2018-Jun-23 04:00N 49°40' W 003°11'611.1
2018-Jun-23 03:30N 49°37' W 003°18'610.8
2018-Jun-23 02:58N 49°34' W 003°26'510.9
2018-Jun-23 02:30N 49°32' W 003°33'1310.9
2018-Jun-23 01:20N 49°26' W 003°50'310.7
2018-Jun-23 01:00N 49°24' W 003°55'510.7
2018-Jun-23 00:30N 49°21' W 004°02'510.7
2018-Jun-23 00:00N 49°19' W 004°09'510.6
2018-Jun-22 23:30N 49°16' W 004°16'610.5
2018-Jun-22 22:57N 49°13' W 004°24'2310.1
2018-Jun-22 20:38N 49°02' W 004°55'9 9.5
2018-Jun-22 19:43N 48°57' W 005°06'26 8.5
2018-Jun-22 16:44N 48°42' W 005°37'3 8.2
2018-Jun-22 16:19N 48°39' W 005°40'3 8.3
2018-Jun-22 15:59N 48°37' W 005°42'  
2018-Jun-19 16:44N 39°31' W 009°49'2 8.5
2018-Jun-19 16:30N 39°29' W 009°49'5 8.9
2018-Jun-19 16:00N 39°24' W 009°49'4 8.7
2018-Jun-19 15:30N 39°20' W 009°49'5 9.1
2018-Jun-19 15:00N 39°15' W 009°49'5 8.9
2018-Jun-19 14:29N 39°11' W 009°49'4 9.1
2018-Jun-19 14:00N 39°06' W 009°50'4 8.6
2018-Jun-19 13:30N 39°02' W 009°50'4 8.5
2018-Jun-19 13:00N 38°58' W 009°50'4 8.7
2018-Jun-19 12:30N 38°53' W 009°50'4 8.7
2018-Jun-19 12:00N 38°49' W 009°50'4 8.4
2018-Jun-19 11:30N 38°45' W 009°50'4 8.1
2018-Jun-19 11:00N 38°41' W 009°50'4 8.2
2018-Jun-19 10:30N 38°37' W 009°48'4 8.1
2018-Jun-19 10:00N 38°33' W 009°47'4 7.9
2018-Jun-19 09:30N 38°29' W 009°46'6 8.4
2018-Jun-19 08:45N 38°23' W 009°44'2 8.4
2018-Jun-19 08:28N 38°21' W 009°44'4 8.4
2018-Jun-19 07:58N 38°16' W 009°42'7 8.6
2018-Jun-19 07:12N 38°10' W 009°41'9 8.6
2018-Jun-19 06:10N 38°01' W 009°38'14 8.8
2018-Jun-19 04:32N 37°47' W 009°34'2 8.9
2018-Jun-19 04:18N 37°45' W 009°33'3 8.5
2018-Jun-19 03:57N 37°42' W 009°33'4 8.7
2018-Jun-19 03:30N 37°39' W 009°31'5 9.0
2018-Jun-19 02:59N 37°34' W 009°30'4 8.8
2018-Jun-19 02:30N 37°30' W 009°29'4 8.4
2018-Jun-19 02:00N 37°26' W 009°27'4 8.5
2018-Jun-19 01:30N 37°22' W 009°26'4 8.8
2018-Jun-19 01:00N 37°17' W 009°25'5 9.0
2018-Jun-19 00:28N 37°13' W 009°24'76 7.9
2018-Jun-18 14:51N 36°28' W 008°06'3 9.3
2018-Jun-18 14:30N 36°27' W 008°02'5 9.4
2018-Jun-18 14:00N 36°26' W 007°57'5 9.4
2018-Jun-18 13:30N 36°24' W 007°51'5 9.5
2018-Jun-18 13:00N 36°23' W 007°46'104 9.7
2018-Jun-18 02:16N 35°58' W 005°40'310.1
2018-Jun-18 02:00N 35°58' W 005°37'5 9.4
2018-Jun-18 01:30N 35°58' W 005°31'4 8.5
2018-Jun-18 01:00N 35°59' W 005°26'4 7.3
2018-Jun-18 00:30N 35°57' W 005°22'4 8.5
2018-Jun-18 00:00N 35°54' W 005°19'1 1.6
2018-Jun-17 23:29N 35°54' W 005°18'0 0.0
2018-Jun-17 22:59N 35°54' W 005°18'0 0.0
2018-Jun-17 22:29N 35°54' W 005°18'0 0.0
2018-Jun-17 21:59N 35°54' W 005°18'0 0.0
2018-Jun-17 21:29N 35°54' W 005°18'0 0.0
2018-Jun-17 20:59N 35°54' W 005°18'0 0.0
2018-Jun-17 20:29N 35°54' W 005°18'0 0.0
2018-Jun-17 19:59N 35°54' W 005°18'0 0.0
2018-Jun-17 19:31N 35°54' W 005°18'1 1.6
2018-Jun-17 19:01N 35°55' W 005°18'1 1.0
2018-Jun-17 18:30N 35°55' W 005°18'1 1.1
2018-Jun-17 18:00N 35°55' W 005°18'1 1.5
2018-Jun-17 17:30N 35°56' W 005°17'4 8.0
2018-Jun-17 17:00N 35°59' W 005°14'2 2.7
2018-Jun-17 16:19N 36°00' W 005°13'1 1.5
2018-Jun-17 15:55N 35°60' W 005°13'1 2.0
2018-Jun-17 15:30N 35°59' W 005°13'1 2.5
2018-Jun-17 15:00N 35°58' W 005°14'1 1.3
2018-Jun-17 14:31N 35°57' W 005°14'2 4.4
2018-Jun-17 13:59N 35°57' W 005°11'5 8.9
2018-Jun-17 13:28N 35°58' W 005°06'157 9.1
2018-Jun-16 20:07N 36°45' W 001°59'  

Dump ship's entire track history